sensor_id;sensor_type;location;lat;lon;timestamp;temperature;humidity
70550;DHT22;58101;48.658;2.328;2023-06-10T00:02:21;22.90;98.90
70550;DHT22;58101;48.658;2.328;2023-06-10T00:04:59;22.80;98.00
70550;DHT22;58101;48.658;2.328;2023-06-10T00:07:25;22.80;96.50
70550;DHT22;58101;48.658;2.328;2023-06-10T00:09:50;22.80;96.00
70550;DHT22;58101;48.658;2.328;2023-06-10T00:12:16;22.80;94.90
70550;DHT22;58101;48.658;2.328;2023-06-10T00:14:43;22.80;94.40
70550;DHT22;58101;48.658;2.328;2023-06-10T00:17:09;22.70;95.00
70550;DHT22;58101;48.658;2.328;2023-06-10T00:19:35;22.70;95.10
70550;DHT22;58101;48.658;2.328;2023-06-10T00:22:01;22.70;94.30
70550;DHT22;58101;48.658;2.328;2023-06-10T00:24:28;22.60;94.80
70550;DHT22;58101;48.658;2.328;2023-06-10T00:26:54;22.60;94.30
70550;DHT22;58101;48.658;2.328;2023-06-10T00:29:20;22.60;94.30
70550;DHT22;58101;48.658;2.328;2023-06-10T00:31:46;22.60;94.30
70550;DHT22;58101;48.658;2.328;2023-06-10T00:34:12;22.60;94.30
70550;DHT22;58101;48.658;2.328;2023-06-10T00:36:38;22.60;94.30
70550;DHT22;58101;48.658;2.328;2023-06-10T00:39:03;22.60;94.20
70550;DHT22;58101;48.658;2.328;2023-06-10T00:41:32;22.60;94.20
70550;DHT22;58101;48.658;2.328;2023-06-10T00:43:59;22.60;94.10
70550;DHT22;58101;48.658;2.328;2023-06-10T00:46:25;22.60;94.10
70550;DHT22;58101;48.658;2.328;2023-06-10T00:48:52;22.50;93.80
70550;DHT22;58101;48.658;2.328;2023-06-10T00:51:33;22.50;94.30
70550;DHT22;58101;48.658;2.328;2023-06-10T00:53:59;22.50;94.10
70550;DHT22;58101;48.658;2.328;2023-06-10T00:56:25;22.50;94.30
70550;DHT22;58101;48.658;2.328;2023-06-10T00:59:00;22.40;94.30
70550;DHT22;58101;48.658;2.328;2023-06-10T01:01:26;22.40;94.40
70550;DHT22;58101;48.658;2.328;2023-06-10T01:03:52;22.30;94.70
70550;DHT22;58101;48.658;2.328;2023-06-10T01:15:02;22.20;96.80
70550;DHT22;58101;48.658;2.328;2023-06-10T01:17:34;22.20;96.70
70550;DHT22;58101;48.658;2.328;2023-06-10T01:20:01;22.10;96.80
70550;DHT22;58101;48.658;2.328;2023-06-10T01:22:43;22.10;96.90
70550;DHT22;58101;48.658;2.328;2023-06-10T01:25:11;22.10;97.10
70550;DHT22;58101;48.658;2.328;2023-06-10T01:27:38;22.00;97.40
70550;DHT22;58101;48.658;2.328;2023-06-10T01:30:18;22.00;97.40
70550;DHT22;58101;48.658;2.328;2023-06-10T01:32:50;21.90;97.90
70550;DHT22;58101;48.658;2.328;2023-06-10T01:35:25;21.90;98.70
70550;DHT22;58101;48.658;2.328;2023-06-10T01:37:58;21.80;99.10
70550;DHT22;58101;48.658;2.328;2023-06-10T01:40:25;21.80;99.20
70550;DHT22;58101;48.658;2.328;2023-06-10T01:42:52;21.80;99.20
70550;DHT22;58101;48.658;2.328;2023-06-10T01:48:41;21.70;99.60
70550;DHT22;58101;48.658;2.328;2023-06-10T01:51:07;21.70;99.90
70550;DHT22;58101;48.658;2.328;2023-06-10T01:53:33;21.60;99.80
70550;DHT22;58101;48.658;2.328;2023-06-10T01:55:59;21.60;99.80
70550;DHT22;58101;48.658;2.328;2023-06-10T01:58:25;21.60;99.80
70550;DHT22;58101;48.658;2.328;2023-06-10T02:00:51;21.60;99.90
70550;DHT22;58101;48.658;2.328;2023-06-10T02:03:16;21.50;99.90
70550;DHT22;58101;48.658;2.328;2023-06-10T02:05:42;21.50;99.90
70550;DHT22;58101;48.658;2.328;2023-06-10T02:08:08;21.50;99.90
70550;DHT22;58101;48.658;2.328;2023-06-10T02:10:34;21.40;99.90
70550;DHT22;58101;48.658;2.328;2023-06-10T02:12:59;21.40;99.90
70550;DHT22;58101;48.658;2.328;2023-06-10T02:15:25;21.40;99.90
70550;DHT22;58101;48.658;2.328;2023-06-10T02:17:52;21.40;99.90
70550;DHT22;58101;48.658;2.328;2023-06-10T02:20:17;21.30;99.90
70550;DHT22;58101;48.658;2.328;2023-06-10T02:22:43;21.30;99.90
70550;DHT22;58101;48.658;2.328;2023-06-10T02:25:09;21.30;99.90
70550;DHT22;58101;48.658;2.328;2023-06-10T02:27:35;21.20;99.90
70550;DHT22;58101;48.658;2.328;2023-06-10T02:30:01;21.20;99.90
70550;DHT22;58101;48.658;2.328;2023-06-10T02:32:26;21.20;99.90
70550;DHT22;58101;48.658;2.328;2023-06-10T02:34:52;21.10;99.90
70550;DHT22;58101;48.658;2.328;2023-06-10T02:37:18;21.10;99.90
70550;DHT22;58101;48.658;2.328;2023-06-10T02:39:47;21.00;99.90
70550;DHT22;58101;48.658;2.328;2023-06-10T02:42:15;21.00;99.90
70550;DHT22;58101;48.658;2.328;2023-06-10T02:44:41;21.00;99.90
70550;DHT22;58101;48.658;2.328;2023-06-10T02:47:06;20.90;99.90
70550;DHT22;58101;48.658;2.328;2023-06-10T02:49:32;20.90;99.90
70550;DHT22;58101;48.658;2.328;2023-06-10T02:51:58;20.90;99.90
70550;DHT22;58101;48.658;2.328;2023-06-10T02:54:24;20.90;99.90
70550;DHT22;58101;48.658;2.328;2023-06-10T02:56:51;20.90;99.90
70550;DHT22;58101;48.658;2.328;2023-06-10T02:59:20;20.90;99.90
70550;DHT22;58101;48.658;2.328;2023-06-10T03:01:46;20.80;99.90
70550;DHT22;58101;48.658;2.328;2023-06-10T03:04:32;20.80;99.90
70550;DHT22;58101;48.658;2.328;2023-06-10T03:06:58;20.80;99.90
70550;DHT22;58101;48.658;2.328;2023-06-10T03:09:25;20.80;99.90
70550;DHT22;58101;48.658;2.328;2023-06-10T03:11:51;20.80;99.90
70550;DHT22;58101;48.658;2.328;2023-06-10T03:14:20;20.70;99.90
70550;DHT22;58101;48.658;2.328;2023-06-10T03:16:48;20.70;99.90
70550;DHT22;58101;48.658;2.328;2023-06-10T03:19:14;20.70;99.90
70550;DHT22;58101;48.658;2.328;2023-06-10T03:22:11;20.70;99.90
70550;DHT22;58101;48.658;2.328;2023-06-10T03:24:35;20.70;99.90
70550;DHT22;58101;48.658;2.328;2023-06-10T03:27:01;20.70;99.90
70550;DHT22;58101;48.658;2.328;2023-06-10T03:29:37;20.70;99.90
70550;DHT22;58101;48.658;2.328;2023-06-10T03:32:03;20.70;99.90
70550;DHT22;58101;48.658;2.328;2023-06-10T03:34:40;20.60;99.90
70550;DHT22;58101;48.658;2.328;2023-06-10T03:37:09;20.70;99.90
70550;DHT22;58101;48.658;2.328;2023-06-10T03:39:34;20.60;99.90
70550;DHT22;58101;48.658;2.328;2023-06-10T03:42:00;20.60;99.90
70550;DHT22;58101;48.658;2.328;2023-06-10T03:44:25;20.60;99.90
70550;DHT22;58101;48.658;2.328;2023-06-10T03:46:51;20.50;99.90
70550;DHT22;58101;48.658;2.328;2023-06-10T03:49:17;20.50;99.90
70550;DHT22;58101;48.658;2.328;2023-06-10T03:51:45;20.50;99.90
70550;DHT22;58101;48.658;2.328;2023-06-10T03:57:33;20.40;99.90
70550;DHT22;58101;48.658;2.328;2023-06-10T03:59:59;20.40;99.90
70550;DHT22;58101;48.658;2.328;2023-06-10T04:02:25;20.40;99.90
70550;DHT22;58101;48.658;2.328;2023-06-10T04:04:50;20.40;99.90
70550;DHT22;58101;48.658;2.328;2023-06-10T04:07:17;20.30;99.90
70550;DHT22;58101;48.658;2.328;2023-06-10T04:09:44;20.30;99.90
70550;DHT22;58101;48.658;2.328;2023-06-10T04:12:10;20.30;99.90
70550;DHT22;58101;48.658;2.328;2023-06-10T04:14:36;20.30;99.90
70550;DHT22;58101;48.658;2.328;2023-06-10T04:17:04;20.30;99.90
70550;DHT22;58101;48.658;2.328;2023-06-10T04:19:32;20.20;99.90
70550;DHT22;58101;48.658;2.328;2023-06-10T04:22:00;20.20;99.90
70550;DHT22;58101;48.658;2.328;2023-06-10T04:24:35;20.20;99.90
70550;DHT22;58101;48.658;2.328;2023-06-10T04:27:03;20.20;99.90
70550;DHT22;58101;48.658;2.328;2023-06-10T04:29:44;20.20;99.90
70550;DHT22;58101;48.658;2.328;2023-06-10T04:32:10;20.20;99.90
70550;DHT22;58101;48.658;2.328;2023-06-10T04:34:39;20.20;99.90
70550;DHT22;58101;48.658;2.328;2023-06-10T04:37:05;20.20;99.90
70550;DHT22;58101;48.658;2.328;2023-06-10T04:39:32;20.20;99.90
70550;DHT22;58101;48.658;2.328;2023-06-10T04:41:57;20.30;99.90
70550;DHT22;58101;48.658;2.328;2023-06-10T04:44:26;20.30;99.90
70550;DHT22;58101;48.658;2.328;2023-06-10T04:46:51;20.30;99.90
70550;DHT22;58101;48.658;2.328;2023-06-10T04:49:17;20.30;99.90
70550;DHT22;58101;48.658;2.328;2023-06-10T04:51:43;20.30;99.90
70550;DHT22;58101;48.658;2.328;2023-06-10T04:54:08;20.30;99.90
70550;DHT22;58101;48.658;2.328;2023-06-10T04:56:34;20.30;99.90
70550;DHT22;58101;48.658;2.328;2023-06-10T04:59:00;20.30;99.90
70550;DHT22;58101;48.658;2.328;2023-06-10T05:01:26;20.40;99.90
70550;DHT22;58101;48.658;2.328;2023-06-10T05:04:10;20.40;99.90
70550;DHT22;58101;48.658;2.328;2023-06-10T05:06:39;20.40;99.90
70550;DHT22;58101;48.658;2.328;2023-06-10T05:09:16;20.40;99.90
70550;DHT22;58101;48.658;2.328;2023-06-10T05:11:42;20.40;99.90
70550;DHT22;58101;48.658;2.328;2023-06-10T05:14:08;20.50;99.90
70550;DHT22;58101;48.658;2.328;2023-06-10T05:16:33;20.50;99.90
70550;DHT22;58101;48.658;2.328;2023-06-10T05:18:59;20.50;99.90
70550;DHT22;58101;48.658;2.328;2023-06-10T05:21:24;20.50;99.90
70550;DHT22;58101;48.658;2.328;2023-06-10T05:23:50;20.50;99.90
70550;DHT22;58101;48.658;2.328;2023-06-10T05:26:16;20.60;99.90
70550;DHT22;58101;48.658;2.328;2023-06-10T05:28:45;20.60;99.90
70550;DHT22;58101;48.658;2.328;2023-06-10T05:31:10;20.60;99.90
70550;DHT22;58101;48.658;2.328;2023-06-10T05:33:36;20.60;99.90
70550;DHT22;58101;48.658;2.328;2023-06-10T05:36:04;20.60;99.90
70550;DHT22;58101;48.658;2.328;2023-06-10T05:38:33;20.70;99.90
70550;DHT22;58101;48.658;2.328;2023-06-10T05:40:58;20.70;99.90
70550;DHT22;58101;48.658;2.328;2023-06-10T05:43:24;20.80;99.90
70550;DHT22;58101;48.658;2.328;2023-06-10T05:45:50;20.90;99.90
70550;DHT22;58101;48.658;2.328;2023-06-10T05:48:18;20.90;99.90
70550;DHT22;58101;48.658;2.328;2023-06-10T05:50:45;21.00;99.90
70550;DHT22;58101;48.658;2.328;2023-06-10T05:53:14;21.00;99.90
70550;DHT22;58101;48.658;2.328;2023-06-10T05:55:44;21.00;99.90
70550;DHT22;58101;48.658;2.328;2023-06-10T05:58:20;21.00;99.90
70550;DHT22;58101;48.658;2.328;2023-06-10T06:00:45;21.00;99.90
70550;DHT22;58101;48.658;2.328;2023-06-10T06:03:39;21.10;99.90
70550;DHT22;58101;48.658;2.328;2023-06-10T06:06:05;21.10;99.90
70550;DHT22;58101;48.658;2.328;2023-06-10T06:08:31;21.20;99.90
70550;DHT22;58101;48.658;2.328;2023-06-10T06:10:57;21.20;99.90
70550;DHT22;58101;48.658;2.328;2023-06-10T06:13:22;21.20;99.90
70550;DHT22;58101;48.658;2.328;2023-06-10T06:15:48;21.20;99.90
70550;DHT22;58101;48.658;2.328;2023-06-10T06:18:17;21.20;99.90
70550;DHT22;58101;48.658;2.328;2023-06-10T06:20:44;21.30;99.90
70550;DHT22;58101;48.658;2.328;2023-06-10T06:23:10;21.40;99.90
70550;DHT22;58101;48.658;2.328;2023-06-10T06:25:36;21.50;99.90
70550;DHT22;58101;48.658;2.328;2023-06-10T06:28:07;21.50;99.90
70550;DHT22;58101;48.658;2.328;2023-06-10T06:30:34;21.60;99.90
70550;DHT22;58101;48.658;2.328;2023-06-10T06:33:00;21.60;99.90
70550;DHT22;58101;48.658;2.328;2023-06-10T06:35:26;21.80;99.90
70550;DHT22;58101;48.658;2.328;2023-06-10T06:37:52;21.90;99.90
70550;DHT22;58101;48.658;2.328;2023-06-10T06:40:17;22.00;99.10
70550;DHT22;58101;48.658;2.328;2023-06-10T06:42:45;22.10;98.70
70550;DHT22;58101;48.658;2.328;2023-06-10T06:45:11;22.10;98.10
70550;DHT22;58101;48.658;2.328;2023-06-10T06:47:37;22.20;98.10
70550;DHT22;58101;48.658;2.328;2023-06-10T06:50:03;22.20;97.10
70550;DHT22;58101;48.658;2.328;2023-06-10T06:52:28;22.30;97.50
70550;DHT22;58101;48.658;2.328;2023-06-10T06:54:54;22.30;97.40
70550;DHT22;58101;48.658;2.328;2023-06-10T06:57:20;22.40;97.30
70550;DHT22;58101;48.658;2.328;2023-06-10T06:59:45;22.50;96.10
70550;DHT22;58101;48.658;2.328;2023-06-10T07:02:11;22.50;96.70
70550;DHT22;58101;48.658;2.328;2023-06-10T07:04:37;22.60;96.80
70550;DHT22;58101;48.658;2.328;2023-06-10T07:07:04;22.50;97.50
70550;DHT22;58101;48.658;2.328;2023-06-10T07:09:30;22.50;97.60
70550;DHT22;58101;48.658;2.328;2023-06-10T07:11:56;22.60;97.60
70550;DHT22;58101;48.658;2.328;2023-06-10T07:14:21;22.60;97.30
70550;DHT22;58101;48.658;2.328;2023-06-10T07:16:47;22.70;96.60
70550;DHT22;58101;48.658;2.328;2023-06-10T07:19:13;22.80;96.10
70550;DHT22;58101;48.658;2.328;2023-06-10T07:21:39;23.00;96.10
70550;DHT22;58101;48.658;2.328;2023-06-10T07:24:05;23.20;96.00
70550;DHT22;58101;48.658;2.328;2023-06-10T07:26:31;23.30;94.90
70550;DHT22;58101;48.658;2.328;2023-06-10T07:28:56;23.40;94.00
70550;DHT22;58101;48.658;2.328;2023-06-10T07:31:23;23.50;94.30
70550;DHT22;58101;48.658;2.328;2023-06-10T07:33:48;23.70;93.60
70550;DHT22;58101;48.658;2.328;2023-06-10T07:36:14;23.80;92.80
70550;DHT22;58101;48.658;2.328;2023-06-10T07:38:40;23.90;93.30
70550;DHT22;58101;48.658;2.328;2023-06-10T07:41:08;23.70;93.60
70550;DHT22;58101;48.658;2.328;2023-06-10T07:43:33;23.70;92.90
70550;DHT22;58101;48.658;2.328;2023-06-10T07:45:59;23.70;94.20
70550;DHT22;58101;48.658;2.328;2023-06-10T07:48:25;23.80;94.20
70550;DHT22;58101;48.658;2.328;2023-06-10T07:50:51;23.90;94.00
70550;DHT22;58101;48.658;2.328;2023-06-10T07:53:17;24.00;93.60
70550;DHT22;58101;48.658;2.328;2023-06-10T07:55:43;23.90;94.80
70550;DHT22;58101;48.658;2.328;2023-06-10T07:58:08;24.10;94.10
70550;DHT22;58101;48.658;2.328;2023-06-10T08:00:34;24.10;94.00
70550;DHT22;58101;48.658;2.328;2023-06-10T08:03:00;24.30;92.90
70550;DHT22;58101;48.658;2.328;2023-06-10T08:05:25;24.40;92.00
70550;DHT22;58101;48.658;2.328;2023-06-10T08:07:51;24.40;91.50
70550;DHT22;58101;48.658;2.328;2023-06-10T08:10:17;24.50;91.10
70550;DHT22;58101;48.658;2.328;2023-06-10T08:12:42;24.60;86.60
70550;DHT22;58101;48.658;2.328;2023-06-10T08:15:08;24.60;86.20
70550;DHT22;58101;48.658;2.328;2023-06-10T08:17:34;24.70;87.50
70550;DHT22;58101;48.658;2.328;2023-06-10T08:20:00;24.80;88.00
70550;DHT22;58101;48.658;2.328;2023-06-10T08:22:26;24.90;88.20
70550;DHT22;58101;48.658;2.328;2023-06-10T08:24:52;25.10;83.10
70550;DHT22;58101;48.658;2.328;2023-06-10T08:27:17;25.20;79.30
70550;DHT22;58101;48.658;2.328;2023-06-10T08:29:43;25.30;77.40
70550;DHT22;58101;48.658;2.328;2023-06-10T08:32:08;25.40;75.60
70550;DHT22;58101;48.658;2.328;2023-06-10T08:34:34;25.40;76.60
70550;DHT22;58101;48.658;2.328;2023-06-10T08:37:03;25.50;76.80
70550;DHT22;58101;48.658;2.328;2023-06-10T08:39:29;25.60;76.90
70550;DHT22;58101;48.658;2.328;2023-06-10T08:44:36;26.00;70.80
70550;DHT22;58101;48.658;2.328;2023-06-10T08:47:16;26.20;69.90
70550;DHT22;58101;48.658;2.328;2023-06-10T08:49:46;26.30;68.30
70550;DHT22;58101;48.658;2.328;2023-06-10T08:52:19;26.50;65.90
70550;DHT22;58101;48.658;2.328;2023-06-10T08:54:59;26.70;65.90
70550;DHT22;58101;48.658;2.328;2023-06-10T08:57:26;26.70;64.70
70550;DHT22;58101;48.658;2.328;2023-06-10T08:59:53;26.70;61.80
70550;DHT22;58101;48.658;2.328;2023-06-10T09:02:20;26.80;60.40
70550;DHT22;58101;48.658;2.328;2023-06-10T09:04:47;26.80;60.40
70550;DHT22;58101;48.658;2.328;2023-06-10T09:07:14;26.90;60.20
70550;DHT22;58101;48.658;2.328;2023-06-10T09:09:42;27.00;59.10
70550;DHT22;58101;48.658;2.328;2023-06-10T09:12:08;27.10;59.20
70550;DHT22;58101;48.658;2.328;2023-06-10T09:14:34;27.30;58.20
70550;DHT22;58101;48.658;2.328;2023-06-10T09:16:59;27.50;57.90
70550;DHT22;58101;48.658;2.328;2023-06-10T09:19:26;27.80;56.80
70550;DHT22;58101;48.658;2.328;2023-06-10T09:21:52;28.10;56.40
70550;DHT22;58101;48.658;2.328;2023-06-10T09:24:18;28.40;54.00
70550;DHT22;58101;48.658;2.328;2023-06-10T09:26:43;28.70;52.50
70550;DHT22;58101;48.658;2.328;2023-06-10T09:29:11;29.30;51.80
70550;DHT22;58101;48.658;2.328;2023-06-10T09:31:40;30.20;48.70
70550;DHT22;58101;48.658;2.328;2023-06-10T09:34:11;30.90;46.10
70550;DHT22;58101;48.658;2.328;2023-06-10T09:36:38;31.60;44.20
70550;DHT22;58101;48.658;2.328;2023-06-10T09:39:05;32.50;42.60
70550;DHT22;58101;48.658;2.328;2023-06-10T09:41:34;33.10;41.10
70550;DHT22;58101;48.658;2.328;2023-06-10T09:44:01;33.60;39.30
70550;DHT22;58101;48.658;2.328;2023-06-10T09:46:31;33.80;37.60
70550;DHT22;58101;48.658;2.328;2023-06-10T09:49:00;34.20;36.30
70550;DHT22;58101;48.658;2.328;2023-06-10T09:51:26;34.10;36.10
70550;DHT22;58101;48.658;2.328;2023-06-10T09:53:52;34.50;36.10
70550;DHT22;58101;48.658;2.328;2023-06-10T09:56:18;34.20;35.70
70550;DHT22;58101;48.658;2.328;2023-06-10T09:58:45;34.10;34.40
70550;DHT22;58101;48.658;2.328;2023-06-10T10:01:13;33.80;35.60
70550;DHT22;58101;48.658;2.328;2023-06-10T10:03:52;33.70;34.60
70550;DHT22;58101;48.658;2.328;2023-06-10T10:06:19;33.60;35.10
70550;DHT22;58101;48.658;2.328;2023-06-10T10:08:49;33.60;36.40
70550;DHT22;58101;48.658;2.328;2023-06-10T10:11:20;33.60;36.20
70550;DHT22;58101;48.658;2.328;2023-06-10T10:13:49;33.70;36.00
70550;DHT22;58101;48.658;2.328;2023-06-10T10:16:26;33.70;35.60
70550;DHT22;58101;48.658;2.328;2023-06-10T10:18:56;34.00;35.40
70550;DHT22;58101;48.658;2.328;2023-06-10T10:22:23;34.20;34.70
70550;DHT22;58101;48.658;2.328;2023-06-10T10:24:52;34.30;35.40
70550;DHT22;58101;48.658;2.328;2023-06-10T10:27:26;34.40;35.60
70550;DHT22;58101;48.658;2.328;2023-06-10T10:29:54;34.30;35.90
70550;DHT22;58101;48.658;2.328;2023-06-10T10:32:31;34.20;35.20
70550;DHT22;58101;48.658;2.328;2023-06-10T10:35:01;34.10;34.90
70550;DHT22;58101;48.658;2.328;2023-06-10T10:37:30;33.40;36.60
70550;DHT22;58101;48.658;2.328;2023-06-10T10:39:56;32.60;37.50
70550;DHT22;58101;48.658;2.328;2023-06-10T10:42:24;32.20;38.80
70550;DHT22;58101;48.658;2.328;2023-06-10T10:44:50;31.90;39.80
70550;DHT22;58101;48.658;2.328;2023-06-10T10:47:22;31.50;39.40
70550;DHT22;58101;48.658;2.328;2023-06-10T10:49:52;31.50;39.90
70550;DHT22;58101;48.658;2.328;2023-06-10T10:52:19;31.20;40.30
70550;DHT22;58101;48.658;2.328;2023-06-10T10:54:46;31.10;41.50
70550;DHT22;58101;48.658;2.328;2023-06-10T10:57:19;31.20;41.60
70550;DHT22;58101;48.658;2.328;2023-06-10T11:02:40;30.80;42.50
70550;DHT22;58101;48.658;2.328;2023-06-10T11:05:09;30.80;42.00
70550;DHT22;58101;48.658;2.328;2023-06-10T11:07:35;30.90;41.70
70550;DHT22;58101;48.658;2.328;2023-06-10T11:10:12;30.90;42.40
70550;DHT22;58101;48.658;2.328;2023-06-10T11:12:51;31.10;42.00
70550;DHT22;58101;48.658;2.328;2023-06-10T11:15:29;31.30;42.00
70550;DHT22;58101;48.658;2.328;2023-06-10T11:18:22;31.50;41.50
70550;DHT22;58101;48.658;2.328;2023-06-10T11:26:16;31.70;39.70
70550;DHT22;58101;48.658;2.328;2023-06-10T11:31:20;31.70;41.20
70550;DHT22;58101;48.658;2.328;2023-06-10T11:33:47;31.70;40.90
70550;DHT22;58101;48.658;2.328;2023-06-10T11:36:14;31.40;40.70
70550;DHT22;58101;48.658;2.328;2023-06-10T11:38:40;30.90;41.70
70550;DHT22;58101;48.658;2.328;2023-06-10T11:41:07;30.60;42.50
70550;DHT22;58101;48.658;2.328;2023-06-10T11:43:33;30.30;42.30
70550;DHT22;58101;48.658;2.328;2023-06-10T11:45:59;30.20;42.40
70550;DHT22;58101;48.658;2.328;2023-06-10T11:48:25;29.90;42.40
70550;DHT22;58101;48.658;2.328;2023-06-10T11:50:54;29.90;42.20
70550;DHT22;58101;48.658;2.328;2023-06-10T11:53:19;29.90;42.60
70550;DHT22;58101;48.658;2.328;2023-06-10T11:55:48;30.10;44.00
70550;DHT22;58101;48.658;2.328;2023-06-10T11:58:19;30.60;41.90
70550;DHT22;58101;48.658;2.328;2023-06-10T12:00:50;31.00;41.10
70550;DHT22;58101;48.658;2.328;2023-06-10T12:03:16;31.20;40.60
70550;DHT22;58101;48.658;2.328;2023-06-10T12:06:04;31.00;40.60
70550;DHT22;58101;48.658;2.328;2023-06-10T12:08:30;30.60;39.60
70550;DHT22;58101;48.658;2.328;2023-06-10T12:10:57;30.40;40.10
70550;DHT22;58101;48.658;2.328;2023-06-10T12:13:25;30.20;40.50
70550;DHT22;58101;48.658;2.328;2023-06-10T12:15:51;30.20;41.00
70550;DHT22;58101;48.658;2.328;2023-06-10T12:18:24;30.30;40.20
70550;DHT22;58101;48.658;2.328;2023-06-10T12:20:50;30.40;40.60
70550;DHT22;58101;48.658;2.328;2023-06-10T12:23:19;30.40;40.40
70550;DHT22;58101;48.658;2.328;2023-06-10T12:25:52;30.30;41.00
70550;DHT22;58101;48.658;2.328;2023-06-10T12:28:22;30.30;41.30
70550;DHT22;58101;48.658;2.328;2023-06-10T12:30:48;30.40;41.90
70550;DHT22;58101;48.658;2.328;2023-06-10T12:33:18;30.30;40.70
70550;DHT22;58101;48.658;2.328;2023-06-10T12:35:50;30.30;41.00
70550;DHT22;58101;48.658;2.328;2023-06-10T12:38:26;30.20;41.10
70550;DHT22;58101;48.658;2.328;2023-06-10T12:41:00;30.20;40.80
70550;DHT22;58101;48.658;2.328;2023-06-10T12:43:26;30.10;41.10
70550;DHT22;58101;48.658;2.328;2023-06-10T12:45:52;29.90;41.70
70550;DHT22;58101;48.658;2.328;2023-06-10T12:48:22;29.70;41.70
70550;DHT22;58101;48.658;2.328;2023-06-10T12:50:53;29.70;42.60
70550;DHT22;58101;48.658;2.328;2023-06-10T12:53:20;29.80;42.90
70550;DHT22;58101;48.658;2.328;2023-06-10T12:55:47;29.80;41.50
70550;DHT22;58101;48.658;2.328;2023-06-10T12:58:13;29.90;42.40
70550;DHT22;58101;48.658;2.328;2023-06-10T13:00:39;30.00;42.00
70550;DHT22;58101;48.658;2.328;2023-06-10T13:03:05;30.20;42.60
70550;DHT22;58101;48.658;2.328;2023-06-10T13:05:32;30.50;41.50
70550;DHT22;58101;48.658;2.328;2023-06-10T13:07:59;30.80;41.70
70550;DHT22;58101;48.658;2.328;2023-06-10T13:10:24;30.90;38.80
70550;DHT22;58101;48.658;2.328;2023-06-10T13:12:51;31.00;38.40
70550;DHT22;58101;48.658;2.328;2023-06-10T13:15:17;31.00;39.30
70550;DHT22;58101;48.658;2.328;2023-06-10T13:17:43;31.00;38.50
70550;DHT22;58101;48.658;2.328;2023-06-10T13:20:09;31.00;38.20
70550;DHT22;58101;48.658;2.328;2023-06-10T13:22:36;31.20;38.80
70550;DHT22;58101;48.658;2.328;2023-06-10T13:25:05;31.20;36.30
70550;DHT22;58101;48.658;2.328;2023-06-10T13:27:35;31.10;36.20
70550;DHT22;58101;48.658;2.328;2023-06-10T13:30:03;31.20;37.20
70550;DHT22;58101;48.658;2.328;2023-06-10T13:32:29;31.30;38.30
70550;DHT22;58101;48.658;2.328;2023-06-10T13:34:55;31.30;37.90
70550;DHT22;58101;48.658;2.328;2023-06-10T13:37:22;31.20;38.10
70550;DHT22;58101;48.658;2.328;2023-06-10T13:39:48;31.30;36.80
70550;DHT22;58101;48.658;2.328;2023-06-10T13:42:19;31.20;37.30
70550;DHT22;58101;48.658;2.328;2023-06-10T13:44:46;31.00;38.10
70550;DHT22;58101;48.658;2.328;2023-06-10T13:47:15;30.80;38.90
70550;DHT22;58101;48.658;2.328;2023-06-10T13:49:41;30.50;38.00
70550;DHT22;58101;48.658;2.328;2023-06-10T13:52:07;30.50;39.10
70550;DHT22;58101;48.658;2.328;2023-06-10T13:54:33;30.30;38.70
70550;DHT22;58101;48.658;2.328;2023-06-10T13:57:01;30.30;38.90
70550;DHT22;58101;48.658;2.328;2023-06-10T13:59:27;30.30;38.90
70550;DHT22;58101;48.658;2.328;2023-06-10T14:01:53;30.30;40.10
70550;DHT22;58101;48.658;2.328;2023-06-10T14:04:18;30.30;39.90
70550;DHT22;58101;48.658;2.328;2023-06-10T14:06:44;30.20;39.70
70550;DHT22;58101;48.658;2.328;2023-06-10T14:09:10;30.30;40.20
70550;DHT22;58101;48.658;2.328;2023-06-10T14:11:35;30.40;40.00
70550;DHT22;58101;48.658;2.328;2023-06-10T14:14:01;30.20;39.60
70550;DHT22;58101;48.658;2.328;2023-06-10T14:16:29;30.00;40.00
70550;DHT22;58101;48.658;2.328;2023-06-10T14:18:54;30.10;40.00
70550;DHT22;58101;48.658;2.328;2023-06-10T14:21:20;30.10;39.40
70550;DHT22;58101;48.658;2.328;2023-06-10T14:23:46;30.20;39.60
70550;DHT22;58101;48.658;2.328;2023-06-10T14:26:14;30.20;40.00
70550;DHT22;58101;48.658;2.328;2023-06-10T14:28:40;30.10;39.60
70550;DHT22;58101;48.658;2.328;2023-06-10T14:31:05;30.10;40.00
70550;DHT22;58101;48.658;2.328;2023-06-10T14:33:35;30.10;39.50
70550;DHT22;58101;48.658;2.328;2023-06-10T14:36:07;30.20;39.60
70550;DHT22;58101;48.658;2.328;2023-06-10T14:38:44;30.20;39.00
70550;DHT22;58101;48.658;2.328;2023-06-10T14:41:36;30.50;39.10
70550;DHT22;58101;48.658;2.328;2023-06-10T14:44:04;30.60;38.50
70550;DHT22;58101;48.658;2.328;2023-06-10T14:46:39;30.50;37.40
70550;DHT22;58101;48.658;2.328;2023-06-10T14:49:05;30.40;37.80
70550;DHT22;58101;48.658;2.328;2023-06-10T14:51:30;30.20;38.90
70550;DHT22;58101;48.658;2.328;2023-06-10T14:53:56;30.10;38.30
70550;DHT22;58101;48.658;2.328;2023-06-10T14:56:22;30.00;38.50
70550;DHT22;58101;48.658;2.328;2023-06-10T14:58:59;29.90;39.30
70550;DHT22;58101;48.658;2.328;2023-06-10T15:01:25;29.90;39.80
70550;DHT22;58101;48.658;2.328;2023-06-10T15:03:51;30.10;39.60
70550;DHT22;58101;48.658;2.328;2023-06-10T15:06:16;30.20;39.20
70550;DHT22;58101;48.658;2.328;2023-06-10T15:08:46;30.20;39.40
70550;DHT22;58101;48.658;2.328;2023-06-10T15:11:14;30.20;39.60
70550;DHT22;58101;48.658;2.328;2023-06-10T15:13:46;30.20;39.50
70550;DHT22;58101;48.658;2.328;2023-06-10T15:16:11;30.10;39.60
70550;DHT22;58101;48.658;2.328;2023-06-10T15:18:37;30.00;39.60
70550;DHT22;58101;48.658;2.328;2023-06-10T15:21:03;29.90;39.50
70550;DHT22;58101;48.658;2.328;2023-06-10T15:23:29;29.80;39.50
70550;DHT22;58101;48.658;2.328;2023-06-10T15:25:54;29.80;40.00
70550;DHT22;58101;48.658;2.328;2023-06-10T15:28:23;29.90;39.30
70550;DHT22;58101;48.658;2.328;2023-06-10T15:30:49;30.00;39.50
70550;DHT22;58101;48.658;2.328;2023-06-10T15:33:14;30.00;39.50
70550;DHT22;58101;48.658;2.328;2023-06-10T15:35:43;30.00;39.00
70550;DHT22;58101;48.658;2.328;2023-06-10T15:38:11;30.10;39.20
70550;DHT22;58101;48.658;2.328;2023-06-10T15:40:46;30.10;39.20
70550;DHT22;58101;48.658;2.328;2023-06-10T15:43:12;30.10;39.60
70550;DHT22;58101;48.658;2.328;2023-06-10T15:45:38;29.90;39.70
70550;DHT22;58101;48.658;2.328;2023-06-10T15:48:05;30.00;40.00
70550;DHT22;58101;48.658;2.328;2023-06-10T15:50:30;30.00;40.00
70550;DHT22;58101;48.658;2.328;2023-06-10T15:52:57;30.10;39.40
70550;DHT22;58101;48.658;2.328;2023-06-10T15:55:22;30.20;39.60
70550;DHT22;58101;48.658;2.328;2023-06-10T15:57:51;30.00;39.10
70550;DHT22;58101;48.658;2.328;2023-06-10T16:00:17;29.80;39.40
70550;DHT22;58101;48.658;2.328;2023-06-10T16:02:42;29.80;39.70
70550;DHT22;58101;48.658;2.328;2023-06-10T16:05:08;29.80;39.50